createdAt,value
2023-04-19T00:02:19.452Z,11.50
2023-04-19T00:04:47.557Z,11.40
2023-04-19T00:07:20.435Z,11.50
2023-04-19T00:09:47.259Z,11.50
2023-04-19T00:12:13.985Z,11.50
2023-04-19T00:14:40.741Z,11.50
2023-04-19T00:17:07.527Z,11.50
2023-04-19T00:19:36.801Z,11.50
2023-04-19T00:22:03.600Z,11.60
2023-04-19T00:24:33.163Z,11.60
2023-04-19T00:27:04.560Z,11.60
2023-04-19T00:29:31.911Z,11.50
2023-04-19T00:31:58.643Z,11.40
2023-04-19T00:34:25.435Z,11.30
2023-04-19T00:36:54.628Z,11.30
2023-04-19T00:39:23.748Z,11.20
2023-04-19T00:41:53.088Z,11.20
2023-04-19T00:44:19.889Z,11.10
2023-04-19T00:46:46.895Z,11.10
2023-04-19T00:49:13.660Z,11.00
2023-04-19T00:51:40.523Z,10.90
2023-04-19T00:54:08.255Z,10.90
2023-04-19T00:56:35.741Z,10.90
2023-04-19T00:59:02.594Z,10.80
2023-04-19T01:01:31.720Z,10.80
2023-04-19T01:04:03.141Z,10.70
2023-04-19T01:06:30.271Z,10.70
2023-04-19T01:08:57.209Z,10.50
2023-04-19T01:11:27.359Z,10.40
2023-04-19T01:13:54.832Z,10.40
2023-04-19T01:16:23.821Z,10.30
2023-04-19T01:18:50.987Z,10.30
2023-04-19T01:21:18.670Z,10.20
2023-04-19T01:23:45.547Z,10.20
2023-04-19T01:26:14.885Z,10.10
2023-04-19T01:28:41.675Z,10.10
2023-04-19T01:31:10.660Z,10.10
2023-04-19T01:33:37.472Z,10.10
2023-04-19T01:36:04.493Z,10.10
2023-04-19T01:38:31.275Z,10.00
2023-04-19T01:41:00.253Z,10.10
2023-04-19T01:43:27.049Z,10.10
2023-04-19T01:45:56.148Z,10.10
2023-04-19T01:48:22.972Z,10.10
2023-04-19T01:50:54.358Z,10.20
2023-04-19T01:53:21.157Z,10.20
2023-04-19T01:55:50.112Z,10.30
2023-04-19T01:58:19.051Z,10.30
2023-04-19T02:00:46.229Z,10.30
2023-04-19T02:03:17.894Z,10.20
2023-04-19T02:05:47.267Z,10.20
2023-04-19T02:08:13.999Z,10.10
2023-04-19T02:10:40.816Z,10.00
2023-04-19T02:13:07.577Z,10.00
2023-04-19T02:15:36.571Z,9.90
2023-04-19T02:18:06.826Z,9.90
2023-04-19T02:20:33.846Z,9.90
2023-04-19T02:23:02.979Z,9.90
2023-04-19T02:25:29.759Z,10.00
2023-04-19T02:27:56.534Z,10.00
2023-04-19T02:30:23.382Z,10.10
2023-04-19T02:32:50.251Z,10.10
2023-04-19T02:35:19.261Z,10.10
2023-04-19T02:37:48.225Z,10.20
2023-04-19T02:40:17.397Z,10.10
2023-04-19T02:42:46.274Z,10.20
2023-04-19T02:45:13.025Z,10.20
2023-04-19T02:47:46.611Z,10.20
2023-04-19T02:50:14.789Z,10.10
2023-04-19T02:52:44.123Z,10.10
2023-04-19T02:55:10.996Z,10.10
2023-04-19T02:57:41.127Z,10.10
2023-04-19T03:00:09.066Z,10.10
2023-04-19T03:02:36.305Z,10.10
2023-04-19T03:05:06.571Z,10.10
2023-04-19T03:07:33.314Z,10.10
2023-04-19T03:10:02.599Z,10.10
2023-04-19T03:12:29.376Z,10.00
2023-04-19T03:14:56.207Z,10.00
2023-04-19T03:17:23.034Z,9.90
2023-04-19T03:19:52.537Z,9.90
2023-04-19T03:22:19.350Z,9.90
2023-04-19T03:24:48.295Z,9.80
2023-04-19T03:27:15.046Z,9.80
2023-04-19T03:29:41.814Z,9.80
2023-04-19T03:32:08.669Z,9.80
2023-04-19T03:34:35.509Z,9.70
2023-04-19T03:37:02.245Z,9.70
2023-04-19T03:39:31.849Z,9.70
2023-04-19T03:41:58.557Z,9.70
2023-04-19T03:44:25.291Z,9.60
2023-04-19T03:46:52.046Z,9.70
2023-04-19T03:49:19.890Z,9.70
2023-04-19T03:51:46.646Z,9.70
2023-04-19T03:54:13.497Z,9.70
2023-04-19T03:56:40.344Z,9.70
2023-04-19T03:59:07.064Z,9.70
2023-04-19T04:01:41.858Z,9.70
2023-04-19T04:04:17.443Z,9.70
2023-04-19T04:06:44.557Z,9.70
2023-04-19T04:09:11.350Z,9.70
2023-04-19T04:11:38.095Z,9.70
2023-04-19T04:14:04.938Z,9.70
2023-04-19T04:16:31.839Z,9.70
2023-04-19T04:18:58.626Z,9.60
2023-04-19T04:21:27.099Z,9.60
2023-04-19T04:23:53.958Z,9.70
2023-04-19T04:26:25.266Z,9.70
2023-04-19T04:28:52.132Z,9.70
2023-04-19T04:31:18.977Z,9.50
2023-04-19T04:33:48.237Z,9.40
2023-04-19T04:36:17.136Z,9.40
2023-04-19T04:38:46.109Z,9.40
2023-04-19T04:41:12.944Z,9.40
2023-04-19T04:43:39.778Z,9.40
2023-04-19T04:46:09.109Z,9.40
2023-04-19T04:48:36.028Z,9.40
2023-04-19T04:51:02.774Z,9.30
2023-04-19T04:53:29.608Z,9.30
2023-04-19T04:55:56.331Z,9.30
2023-04-19T04:58:23.106Z,9.40
2023-04-19T05:00:49.928Z,9.40
2023-04-19T05:03:16.925Z,9.40
2023-04-19T05:05:45.067Z,9.50
2023-04-19T05:08:12.285Z,9.50
2023-04-19T05:10:39.006Z,9.60
2023-04-19T05:13:05.759Z,9.60
2023-04-19T05:15:32.531Z,9.60
2023-04-19T05:17:59.327Z,9.60
2023-04-19T05:20:29.389Z,9.60
2023-04-19T05:23:00.519Z,9.50
2023-04-19T05:25:27.473Z,9.50
2023-04-19T05:27:54.312Z,9.50
2023-04-19T05:30:21.129Z,9.50
2023-04-19T05:32:50.352Z,9.50
2023-04-19T05:35:19.306Z,9.40
2023-04-19T05:37:46.368Z,9.50
2023-04-19T05:40:13.856Z,9.40
2023-04-19T05:42:40.638Z,9.40
2023-04-19T05:45:08.018Z,9.40
2023-04-19T05:47:34.783Z,9.50
2023-04-19T05:50:01.686Z,9.50
2023-04-19T05:52:28.407Z,9.50
2023-04-19T05:54:58.138Z,9.50
2023-04-19T05:57:24.942Z,9.50
2023-04-19T05:59:51.725Z,9.50
2023-04-19T06:02:20.851Z,9.50
2023-04-19T06:04:47.996Z,9.50
2023-04-19T06:07:30.104Z,9.40
2023-04-19T06:09:59.586Z,9.40
2023-04-19T06:12:28.754Z,9.40
2023-04-19T06:14:55.616Z,9.40
2023-04-19T06:17:25.681Z,9.40
2023-04-19T06:19:55.761Z,9.40
2023-04-19T06:22:24.992Z,9.50
2023-04-19T06:24:51.728Z,9.50
2023-04-19T06:27:18.514Z,9.40
2023-04-19T06:29:45.282Z,9.50
2023-04-19T06:32:12.080Z,9.50
2023-04-19T06:34:38.795Z,9.40
2023-04-19T06:37:05.550Z,9.40
2023-04-19T06:39:32.283Z,9.40
2023-04-19T06:41:59.048Z,9.50
2023-04-19T06:44:25.833Z,9.50
2023-04-19T06:46:57.070Z,9.60
2023-04-19T06:49:23.799Z,9.50
2023-04-19T06:51:53.438Z,9.60
2023-04-19T06:54:20.454Z,9.60
2023-04-19T06:56:48.809Z,9.70
2023-04-19T06:59:19.796Z,9.70
2023-04-19T07:01:47.000Z,9.80
2023-04-19T07:04:14.742Z,9.80
2023-04-19T07:06:41.980Z,9.90
2023-04-19T07:09:08.763Z,9.90
2023-04-19T07:11:35.469Z,10.00
2023-04-19T07:14:04.625Z,10.00
2023-04-19T07:16:31.455Z,10.10
2023-04-19T07:18:58.628Z,10.10
2023-04-19T07:21:28.722Z,10.10
2023-04-19T07:23:55.500Z,10.20
2023-04-19T07:26:22.280Z,10.20
2023-04-19T07:28:49.491Z,10.20
2023-04-19T07:31:19.150Z,10.10
2023-04-19T07:33:45.979Z,10.10
2023-04-19T07:36:12.750Z,10.10
2023-04-19T07:38:39.853Z,10.20
2023-04-19T07:41:06.610Z,10.20
2023-04-19T07:43:33.483Z,10.30
2023-04-19T07:46:02.485Z,10.30
2023-04-19T07:48:29.329Z,10.30
2023-04-19T07:50:56.085Z,10.40
2023-04-19T07:53:22.878Z,10.40
2023-04-19T07:55:52.916Z,10.40
2023-04-19T07:58:19.662Z,10.40
2023-04-19T08:00:46.479Z,10.40
2023-04-19T08:03:13.408Z,10.40
2023-04-19T08:05:40.451Z,10.40
2023-04-19T08:08:07.227Z,10.40
2023-04-19T08:10:34.840Z,10.40
2023-04-19T08:13:06.203Z,10.30
2023-04-19T08:18:07.168Z,10.30
2023-04-19T08:20:34.101Z,10.30
2023-04-19T08:23:14.053Z,10.30
2023-04-19T08:25:47.831Z,10.30
2023-04-19T08:28:14.662Z,10.30
2023-04-19T08:30:41.561Z,10.40
2023-04-19T08:33:08.466Z,10.50
2023-04-19T08:35:38.210Z,10.50
2023-04-19T08:38:07.916Z,10.60
2023-04-19T08:40:34.693Z,10.70
2023-04-19T08:43:05.984Z,10.70
2023-04-19T08:45:32.766Z,10.70
2023-04-19T08:48:02.296Z,10.70
2023-04-19T08:53:15.708Z,10.70
2023-04-19T08:58:30.712Z,10.70
2023-04-19T09:01:12.839Z,10.70
2023-04-19T09:04:00.461Z,10.70
2023-04-19T09:06:39.370Z,10.70
2023-04-19T09:11:50.676Z,10.60
2023-04-19T09:14:18.692Z,10.70
2023-04-19T09:16:45.662Z,10.70
2023-04-19T09:19:23.562Z,10.70
2023-04-19T09:21:53.823Z,10.80
2023-04-19T09:25:13.924Z,10.80
2023-04-19T09:27:33.462Z,10.80
2023-04-19T09:30:01.435Z,10.90
2023-04-19T09:32:28.737Z,11.00
2023-04-19T09:34:59.614Z,11.00
2023-04-19T09:37:51.366Z,11.00
2023-04-19T09:40:27.021Z,11.00
2023-04-19T09:48:12.336Z,11.10
2023-04-19T09:51:02.704Z,11.10
2023-04-19T09:53:36.789Z,11.10
2023-04-19T09:56:05.454Z,11.20
2023-04-19T09:58:42.554Z,11.10
2023-04-19T10:01:17.420Z,11.20
2023-04-19T10:03:49.158Z,11.20
2023-04-19T10:06:37.326Z,11.20
2023-04-19T10:09:04.660Z,11.20
2023-04-19T10:11:41.501Z,11.30
2023-04-19T10:14:12.901Z,11.20
2023-04-19T10:16:39.818Z,11.20
2023-04-19T10:19:10.014Z,11.30
2023-04-19T10:21:37.192Z,11.20
2023-04-19T10:24:06.858Z,11.20
2023-04-19T10:27:12.027Z,11.30
2023-04-19T10:29:58.898Z,11.30
2023-04-19T10:32:40.876Z,11.30
2023-04-19T10:35:21.802Z,11.30
2023-04-19T10:38:25.511Z,11.30
2023-04-19T10:40:52.739Z,11.40
2023-04-19T10:43:19.664Z,11.30
2023-04-19T10:45:49.026Z,11.40
2023-04-19T10:48:32.221Z,11.40
2023-04-19T10:51:02.784Z,11.40
2023-04-19T10:54:06.865Z,11.40
2023-04-19T10:56:33.781Z,11.40
2023-04-19T10:59:07.775Z,11.40
2023-04-19T11:01:43.632Z,11.40
2023-04-19T11:04:11.094Z,11.40
2023-04-19T11:06:47.688Z,11.40
2023-04-19T11:09:38.690Z,11.50
2023-04-19T11:12:09.147Z,11.50
2023-04-19T11:14:48.373Z,11.50
2023-04-19T11:17:18.772Z,11.60
2023-04-19T11:20:10.001Z,11.70
2023-04-19T11:22:37.401Z,11.70
2023-04-19T11:25:20.174Z,11.70
2023-04-19T11:27:52.252Z,11.80
2023-04-19T11:30:22.454Z,11.90
2023-04-19T11:32:52.790Z,11.90
2023-04-19T11:35:25.666Z,12.00
2023-04-19T11:37:52.693Z,12.00
2023-04-19T11:40:20.451Z,12.10
2023-04-19T11:42:47.401Z,12.20
2023-04-19T11:45:31.187Z,12.20
2023-04-19T11:48:05.786Z,12.30
2023-04-19T11:50:39.305Z,12.40
2023-04-19T11:53:15.795Z,12.60
2023-04-19T11:55:51.245Z,12.90
2023-04-19T11:58:36.362Z,13.10
2023-04-19T12:01:09.751Z,13.20
2023-04-19T12:03:47.510Z,13.30
2023-04-19T12:06:25.741Z,13.40
2023-04-19T12:08:55.251Z,13.40
2023-04-19T12:11:26.468Z,13.40
2023-04-19T12:14:12.546Z,13.30
2023-04-19T12:16:41.692Z,13.30
2023-04-19T12:19:17.883Z,13.30
2023-04-19T12:21:47.720Z,13.20
2023-04-19T12:24:20.309Z,13.30
2023-04-19T12:27:00.364Z,13.30
2023-04-19T12:29:29.281Z,13.30
2023-04-19T12:31:56.153Z,13.20
2023-04-19T12:34:22.975Z,13.20
2023-04-19T12:36:54.442Z,13.20
2023-04-19T12:39:21.235Z,13.20
2023-04-19T12:41:50.378Z,13.20
2023-04-19T12:44:17.142Z,13.10
2023-04-19T12:46:43.905Z,13.00
2023-04-19T12:49:12.911Z,12.90
2023-04-19T12:51:39.753Z,12.90
2023-04-19T12:54:07.634Z,12.90
2023-04-19T12:56:35.077Z,12.90
2023-04-19T12:59:04.046Z,12.90
2023-04-19T13:01:35.485Z,12.90
2023-04-19T13:04:02.548Z,12.90
2023-04-19T13:06:29.410Z,12.90
2023-04-19T13:09:00.459Z,12.90
2023-04-19T13:11:30.629Z,13.00
2023-04-19T13:13:57.395Z,13.10
2023-04-19T13:16:26.436Z,13.20
2023-04-19T13:18:54.753Z,13.30
2023-04-19T13:21:23.555Z,13.50
2023-04-19T13:23:50.747Z,13.60
2023-04-19T13:26:17.545Z,13.80
2023-04-19T13:28:49.240Z,13.90
2023-04-19T13:31:20.506Z,13.90
2023-04-19T13:33:47.654Z,14.00
2023-04-19T13:36:14.412Z,14.10
2023-04-19T13:38:41.224Z,14.30
2023-04-19T13:41:07.975Z,14.30
2023-04-19T13:43:37.261Z,14.40
2023-04-19T13:46:04.137Z,14.40
2023-04-19T13:48:31.393Z,14.40
2023-04-19T13:50:58.683Z,14.40
2023-04-19T13:53:26.649Z,14.30
2023-04-19T13:55:53.404Z,14.30
2023-04-19T13:58:20.278Z,14.30
2023-04-19T14:00:48.261Z,14.30
2023-04-19T14:03:15.488Z,14.30
2023-04-19T14:05:44.957Z,14.30
2023-04-19T14:08:16.469Z,14.30
2023-04-19T14:10:43.194Z,14.20
2023-04-19T14:13:12.462Z,14.10
2023-04-19T14:15:41.706Z,14.10
2023-04-19T14:18:10.960Z,14.10
2023-04-19T14:20:37.776Z,14.10
2023-04-19T14:23:09.248Z,14.10
2023-04-19T14:25:38.668Z,14.20
2023-04-19T14:28:07.824Z,14.20
2023-04-19T14:30:36.841Z,14.40
2023-04-19T14:33:03.669Z,14.40
2023-04-19T14:35:30.987Z,14.40
2023-04-19T14:37:57.774Z,14.50
2023-04-19T14:40:24.535Z,14.50
2023-04-19T14:42:53.873Z,14.30
2023-04-19T14:45:20.811Z,14.40
2023-04-19T14:47:47.650Z,14.30
2023-04-19T14:50:14.409Z,14.40
2023-04-19T14:52:41.750Z,14.40
2023-04-19T14:55:09.440Z,14.40
2023-04-19T14:57:38.706Z,14.30
2023-04-19T15:00:06.075Z,14.30
2023-04-19T15:02:37.732Z,14.30
2023-04-19T15:05:05.110Z,14.30
2023-04-19T15:07:32.000Z,14.40
2023-04-19T15:09:59.259Z,14.40
2023-04-19T15:12:26.008Z,14.40
2023-04-19T15:14:52.868Z,14.40
2023-04-19T15:17:19.680Z,14.40
2023-04-19T15:19:47.090Z,14.40
2023-04-19T15:22:16.254Z,14.30
2023-04-19T15:24:43.038Z,14.20
2023-04-19T15:27:09.855Z,14.10
2023-04-19T15:29:36.685Z,14.10
2023-04-19T15:32:04.690Z,14.00
2023-04-19T15:34:31.657Z,14.00
2023-04-19T15:36:58.473Z,13.80
2023-04-19T15:39:25.814Z,13.70
2023-04-19T15:41:52.590Z,13.60
2023-04-19T15:44:21.544Z,13.40
2023-04-19T15:46:50.502Z,13.30
2023-04-19T15:49:17.858Z,13.20
2023-04-19T15:51:47.084Z,13.20
2023-04-19T15:54:16.962Z,13.10
2023-04-19T15:56:46.594Z,13.00
2023-04-19T15:59:13.375Z,13.10
2023-04-19T16:01:40.237Z,13.10
2023-04-19T16:04:07.455Z,13.10
2023-04-19T16:06:34.453Z,13.10
2023-04-19T16:09:01.213Z,13.10
2023-04-19T16:11:27.984Z,13.10
2023-04-19T16:13:56.994Z,13.10
2023-04-19T16:16:26.550Z,13.10
2023-04-19T16:18:57.013Z,13.10
2023-04-19T16:21:28.572Z,13.00
2023-04-19T16:23:56.200Z,13.10
2023-04-19T16:26:23.138Z,13.00
2023-04-19T16:28:49.939Z,13.10
2023-04-19T16:31:19.163Z,13.00
2023-04-19T16:33:48.718Z,13.00
2023-04-19T16:36:15.597Z,13.00
2023-04-19T16:38:42.400Z,13.00
2023-04-19T16:41:09.250Z,13.00
2023-04-19T16:43:36.943Z,13.00
2023-04-19T16:46:07.213Z,12.90
2023-04-19T16:48:34.088Z,12.90
2023-04-19T16:51:00.830Z,12.90
2023-04-19T16:53:27.594Z,12.90
2023-04-19T16:55:56.371Z,12.90
2023-04-19T16:58:23.448Z,12.90
2023-04-19T17:00:52.716Z,12.90
2023-04-19T17:03:19.693Z,12.90
2023-04-19T17:05:49.107Z,12.90
2023-04-19T17:08:15.891Z,12.90
2023-04-19T17:10:42.708Z,12.90
2023-04-19T17:13:09.515Z,12.90
2023-04-19T17:15:38.994Z,12.80
2023-04-19T17:18:06.025Z,12.80
2023-04-19T17:20:35.031Z,12.80
2023-04-19T17:23:01.802Z,12.80
2023-04-19T17:25:30.972Z,12.80
2023-04-19T17:28:00.450Z,12.80
2023-04-19T17:30:30.157Z,12.80
2023-04-19T17:32:56.967Z,12.80
2023-04-19T17:35:28.590Z,12.70
2023-04-19T17:37:57.576Z,12.70
2023-04-19T17:40:29.283Z,12.70
2023-04-19T17:42:56.537Z,12.70
2023-04-19T17:45:24.991Z,12.70
2023-04-19T17:47:56.207Z,12.60
2023-04-19T17:50:26.564Z,12.60
2023-04-19T17:52:56.070Z,12.60
2023-04-19T17:55:23.131Z,12.60
2023-04-19T17:57:49.865Z,12.60
2023-04-19T18:00:21.082Z,12.60
2023-04-19T18:02:50.192Z,12.60
2023-04-19T18:05:17.760Z,12.60
2023-04-19T18:07:44.495Z,12.50
2023-04-19T18:10:13.744Z,12.50
2023-04-19T18:12:41.054Z,12.50
2023-04-19T18:15:08.417Z,12.40
2023-04-19T18:17:35.859Z,12.40
2023-04-19T18:20:05.956Z,12.40
2023-04-19T18:22:32.933Z,12.40
2023-04-19T18:25:01.864Z,12.40
2023-04-19T18:27:30.338Z,12.40
2023-04-19T18:30:04.039Z,12.40
2023-04-19T18:32:32.115Z,12.30
2023-04-19T18:35:04.306Z,12.30
2023-04-19T18:37:33.604Z,12.20
2023-04-19T18:40:02.689Z,12.20
2023-04-19T18:42:29.403Z,12.20
2023-04-19T18:44:56.235Z,12.10
2023-04-19T18:47:25.201Z,12.10
2023-04-19T18:52:24.174Z,12.10
2023-04-19T18:54:56.255Z,12.10
2023-04-19T18:57:27.658Z,12.10
2023-04-19T18:59:56.223Z,12.10
2023-04-19T19:02:23.206Z,12.10
2023-04-19T19:04:55.993Z,12.10
2023-04-19T19:07:34.999Z,12.10
2023-04-19T19:10:18.226Z,12.10
2023-04-19T19:12:49.012Z,12.10
2023-04-19T19:15:18.855Z,12.20
2023-04-19T19:17:50.388Z,12.20
2023-04-19T19:20:20.495Z,12.20
2023-04-19T19:22:47.424Z,12.20
2023-04-19T19:25:16.696Z,12.20
2023-04-19T19:28:02.209Z,12.20
2023-04-19T19:30:33.857Z,12.30
2023-04-19T19:33:05.042Z,12.20
2023-04-19T19:35:35.057Z,12.30
2023-04-19T19:38:04.843Z,12.30
2023-04-19T19:40:34.647Z,12.20
2023-04-19T19:43:01.654Z,12.20
2023-04-19T19:45:29.100Z,12.10
2023-04-19T19:47:59.021Z,12.10
2023-04-19T19:53:01.651Z,12.10
2023-04-19T19:55:28.939Z,12.10
2023-04-19T20:03:02.732Z,12.20
2023-04-19T20:05:29.963Z,12.20
2023-04-19T20:08:12.836Z,12.20
2023-04-19T20:10:40.951Z,12.30
2023-04-19T20:13:07.788Z,12.30
2023-04-19T20:15:35.376Z,12.30
2023-04-19T20:18:03.438Z,12.30
2023-04-19T20:20:32.839Z,12.30
2023-04-19T20:23:01.923Z,12.30
2023-04-19T20:25:32.594Z,12.30
2023-04-19T20:28:00.387Z,12.30
2023-04-19T20:30:29.489Z,12.30
2023-04-19T20:32:56.339Z,12.30
2023-04-19T20:35:23.244Z,12.30
2023-04-19T20:37:50.972Z,12.30
2023-04-19T20:40:18.543Z,12.30
2023-04-19T20:42:45.396Z,12.30
2023-04-19T20:45:12.915Z,12.30
2023-04-19T20:47:40.113Z,12.30
2023-04-19T20:50:10.475Z,12.30
2023-04-19T20:52:37.249Z,12.30
2023-04-19T20:55:04.900Z,12.30
2023-04-19T20:57:31.800Z,12.30
2023-04-19T21:00:01.273Z,12.30
2023-04-19T21:02:28.259Z,12.30
2023-04-19T21:04:57.361Z,12.40
2023-04-19T21:07:24.217Z,12.40
2023-04-19T21:09:50.967Z,12.40
2023-04-19T21:12:17.897Z,12.40
2023-04-19T21:14:47.809Z,12.40
2023-04-19T21:17:15.946Z,12.50
2023-04-19T21:19:42.736Z,12.50
2023-04-19T21:22:09.581Z,12.50
2023-04-19T21:24:36.333Z,12.50
2023-04-19T21:27:03.242Z,12.40
2023-04-19T21:29:32.815Z,12.50
2023-04-19T21:31:59.577Z,12.50
2023-04-19T21:34:26.350Z,12.50
2023-04-19T21:36:53.213Z,12.50
2023-04-19T21:39:20.014Z,12.50
2023-04-19T21:41:49.364Z,12.50
2023-04-19T21:44:20.741Z,12.40
2023-04-19T21:46:48.520Z,12.50
2023-04-19T21:49:15.688Z,12.40
2023-04-19T21:51:42.642Z,12.40
2023-04-19T21:54:09.404Z,12.40
2023-04-19T21:56:37.366Z,12.40
2023-04-19T21:59:06.418Z,12.30
2023-04-19T22:01:33.234Z,12.30
2023-04-19T22:04:02.313Z,12.30
2023-04-19T22:06:29.273Z,12.40
2023-04-19T22:08:56.752Z,12.40
2023-04-19T22:11:23.531Z,12.40
2023-04-19T22:13:50.260Z,12.40
2023-04-19T22:16:21.959Z,12.40
2023-04-19T22:18:51.220Z,12.40
2023-04-19T22:21:17.954Z,12.40
2023-04-19T22:23:47.198Z,12.40
2023-04-19T22:26:13.933Z,12.30
2023-04-19T22:28:41.036Z,12.30
2023-04-19T22:31:07.847Z,12.30
2023-04-19T22:33:34.600Z,12.30
2023-04-19T22:36:06.886Z,12.30
2023-04-19T22:38:33.701Z,12.30
2023-04-19T22:41:01.022Z,12.30
2023-04-19T22:43:33.143Z,12.30
2023-04-19T22:46:02.222Z,12.20
2023-04-19T22:48:30.187Z,12.20
2023-04-19T22:50:59.832Z,12.20
2023-04-19T22:53:26.584Z,12.20
2023-04-19T22:55:53.382Z,12.20
2023-04-19T22:58:20.203Z,12.10
2023-04-19T23:00:49.746Z,12.10
2023-04-19T23:03:16.694Z,12.00
2023-04-19T23:05:44.646Z,12.10
2023-04-19T23:08:15.159Z,12.00
2023-04-19T23:10:42.544Z,12.00
2023-04-19T23:13:12.098Z,12.00
2023-04-19T23:15:39.392Z,12.00
2023-04-19T23:18:06.607Z,12.00
2023-04-19T23:20:35.790Z,12.00
2023-04-19T23:23:08.035Z,12.00
2023-04-19T23:25:35.028Z,11.90
2023-04-19T23:28:01.977Z,11.90
2023-04-19T23:30:29.672Z,11.90
2023-04-19T23:32:58.829Z,11.90
2023-04-19T23:35:25.873Z,11.80
2023-04-19T23:37:52.626Z,11.80
2023-04-19T23:40:19.451Z,11.80
2023-04-19T23:42:48.749Z,11.80
2023-04-19T23:45:15.579Z,11.80
2023-04-19T23:47:42.389Z,11.70
2023-04-19T23:50:09.654Z,11.70
2023-04-19T23:52:38.657Z,11.70
2023-04-19T23:55:06.869Z,11.70
2023-04-19T23:57:36.560Z,11.70
